createdAt,value
2022-08-12T00:00:59.390Z,853.07
2022-08-12T00:02:03.343Z,853.12
2022-08-12T00:03:00.618Z,852.89
2022-08-12T00:03:59.371Z,852.88
2022-08-12T00:04:59.414Z,852.96
2022-08-12T00:06:04.768Z,852.98
2022-08-12T00:07:00.321Z,852.92
2022-08-12T00:07:59.366Z,852.95
2022-08-12T00:08:59.331Z,852.87
2022-08-12T00:09:59.305Z,852.90
2022-08-12T00:10:59.289Z,852.99
2022-08-12T00:12:00.283Z,852.94
2022-08-12T00:12:59.262Z,852.88
2022-08-12T00:13:59.263Z,852.89
2022-08-12T00:14:59.238Z,852.87
2022-08-12T00:15:59.234Z,852.87
2022-08-12T00:16:59.202Z,852.86
2022-08-12T00:17:59.210Z,852.81
2022-08-12T00:18:59.195Z,852.85
2022-08-12T00:19:59.202Z,852.77
2022-08-12T00:20:59.169Z,852.72
2022-08-12T00:21:59.162Z,852.62
2022-08-12T00:23:00.172Z,852.69
2022-08-12T00:23:59.158Z,852.64
2022-08-12T00:24:59.130Z,852.59
2022-08-12T00:26:21.104Z,852.57
2022-08-12T00:27:00.168Z,852.62
2022-08-12T00:27:59.094Z,852.53
2022-08-12T00:28:59.086Z,852.43
2022-08-12T00:29:59.086Z,852.42
2022-08-12T00:30:59.054Z,852.55
2022-08-12T00:32:00.418Z,852.55
2022-08-12T00:32:59.303Z,852.59
2022-08-12T00:34:00.599Z,852.46
2022-08-12T00:34:59.018Z,852.41
2022-08-12T00:35:59.005Z,852.51
2022-08-12T00:37:03.935Z,852.28
2022-08-12T00:37:59.993Z,852.44
2022-08-12T00:38:58.998Z,852.46
2022-08-12T00:39:58.954Z,852.39
2022-08-12T00:40:58.958Z,852.25
2022-08-12T00:41:58.958Z,852.23
2022-08-12T00:42:58.921Z,852.30
2022-08-12T00:43:58.918Z,852.32
2022-08-12T00:44:58.905Z,852.36
2022-08-12T00:45:58.898Z,852.26
2022-08-12T00:46:58.867Z,852.23
2022-08-12T00:47:58.867Z,852.36
2022-08-12T00:48:58.857Z,852.32
2022-08-12T00:49:58.870Z,852.33
2022-08-12T00:50:59.010Z,852.29
2022-08-12T00:51:58.839Z,852.21
2022-08-12T00:52:58.810Z,852.18
2022-08-12T00:53:58.841Z,852.23
2022-08-12T00:54:58.800Z,852.25
2022-08-12T00:55:58.787Z,852.14
2022-08-12T00:56:58.758Z,852.18
2022-08-12T00:57:58.770Z,852.05
2022-08-12T00:58:58.738Z,852.20
2022-08-12T00:59:58.761Z,852.09
2022-08-12T01:00:58.745Z,852.10
2022-08-12T01:02:11.651Z,852.12
2022-08-12T01:02:59.711Z,852.01
2022-08-12T01:03:59.611Z,852.01
2022-08-12T01:04:58.710Z,851.96
2022-08-12T01:05:58.682Z,852.01
2022-08-12T01:06:58.942Z,851.91
2022-08-12T01:07:58.642Z,851.90
2022-08-12T01:08:58.630Z,852.02
2022-08-12T01:09:58.622Z,852.11
2022-08-12T01:10:59.062Z,851.93
2022-08-12T01:11:58.624Z,851.80
2022-08-12T01:13:18.892Z,851.90
2022-08-12T01:13:59.595Z,851.87
2022-08-12T01:14:58.574Z,851.86
2022-08-12T01:15:58.564Z,851.82
2022-08-12T01:16:58.589Z,851.73
2022-08-12T01:17:58.567Z,851.76
2022-08-12T01:18:58.521Z,851.86
2022-08-12T01:19:58.545Z,851.84
2022-08-12T01:20:58.494Z,851.83
2022-08-12T01:21:58.514Z,851.84
2022-08-12T01:22:58.477Z,851.84
2022-08-12T01:23:58.474Z,851.77
2022-08-12T01:24:58.457Z,851.63
2022-08-12T01:25:58.476Z,851.81
2022-08-12T01:26:58.434Z,851.68
2022-08-12T01:27:58.434Z,851.61
2022-08-12T01:28:58.679Z,851.72
2022-08-12T01:29:58.414Z,851.80
2022-08-12T01:30:58.766Z,851.64
2022-08-12T01:31:58.587Z,851.69
2022-08-12T01:32:58.815Z,851.70
2022-08-12T01:33:58.366Z,851.70
2022-08-12T01:34:58.346Z,851.63
2022-08-12T01:36:08.720Z,851.62
2022-08-12T01:36:59.355Z,851.69
2022-08-12T01:37:58.320Z,851.79
2022-08-12T01:38:58.319Z,851.76
2022-08-12T01:40:34.843Z,851.66
2022-08-12T01:40:59.360Z,851.56
2022-08-12T01:41:58.278Z,851.49
2022-08-12T01:42:58.279Z,851.52
2022-08-12T01:43:58.271Z,851.50
2022-08-12T01:44:58.257Z,851.46
2022-08-12T01:45:58.234Z,851.49
2022-08-12T01:46:58.231Z,851.49
2022-08-12T01:47:58.236Z,851.47
2022-08-12T01:48:58.198Z,851.54
2022-08-12T01:49:58.191Z,851.40
2022-08-12T01:51:00.562Z,851.43
2022-08-12T01:52:21.773Z,851.39
2022-08-12T01:52:59.151Z,851.40
2022-08-12T01:53:58.151Z,851.31
2022-08-12T01:54:58.130Z,851.33
2022-08-12T01:55:58.130Z,851.34
2022-08-12T01:56:58.092Z,851.31
2022-08-12T01:58:01.006Z,851.40
2022-08-12T01:58:58.098Z,851.25
2022-08-12T01:59:58.091Z,851.21
2022-08-12T02:00:58.099Z,851.26
2022-08-12T02:01:58.139Z,851.14
2022-08-12T02:02:58.049Z,851.24
2022-08-12T02:03:58.031Z,851.18
2022-08-12T02:04:58.011Z,851.21
2022-08-12T02:05:58.003Z,851.24
2022-08-12T02:06:57.989Z,851.34
2022-08-12T02:07:58.082Z,851.14
2022-08-12T02:08:58.004Z,851.28
2022-08-12T02:09:57.974Z,851.21
2022-08-12T02:10:57.955Z,851.27
2022-08-12T02:11:58.923Z,851.38
2022-08-12T02:12:58.943Z,851.08
2022-08-12T02:13:57.935Z,851.13
2022-08-12T02:14:57.902Z,851.13
2022-08-12T02:15:57.894Z,851.23
2022-08-12T02:16:57.902Z,851.19
2022-08-12T02:17:57.883Z,851.14
2022-08-12T02:18:57.878Z,851.14
2022-08-12T02:19:57.858Z,851.12
2022-08-12T02:20:57.855Z,851.08
2022-08-12T02:21:57.822Z,851.15
2022-08-12T02:22:57.803Z,851.07
2022-08-12T02:23:57.878Z,851.17
2022-08-12T02:24:57.787Z,851.07
2022-08-12T02:25:57.795Z,851.07
2022-08-12T02:26:57.777Z,850.99
2022-08-12T02:27:57.767Z,850.99
2022-08-12T02:28:57.766Z,851.00
2022-08-12T02:29:57.739Z,851.05
2022-08-12T02:30:57.748Z,850.97
2022-08-12T02:31:57.714Z,850.97
2022-08-12T02:32:57.695Z,851.02
2022-08-12T02:33:57.947Z,851.01
2022-08-12T02:34:57.687Z,850.85
2022-08-12T02:35:57.687Z,850.83
2022-08-12T02:36:57.681Z,850.89
2022-08-12T02:37:58.648Z,850.77
2022-08-12T02:38:57.648Z,850.88
2022-08-12T02:39:57.687Z,850.98
2022-08-12T02:40:57.619Z,850.90
2022-08-12T02:41:57.608Z,850.93
2022-08-12T02:42:57.587Z,850.92
2022-08-12T02:43:57.599Z,850.91
2022-08-12T02:44:57.588Z,850.86
2022-08-12T02:45:57.559Z,850.92
2022-08-12T02:46:57.539Z,850.86
2022-08-12T02:48:00.619Z,850.89
2022-08-12T02:48:57.528Z,850.87
2022-08-12T02:49:57.519Z,850.85
2022-08-12T02:50:57.499Z,850.90
2022-08-12T02:51:57.491Z,850.79
2022-08-12T02:52:57.472Z,850.85
2022-08-12T02:54:04.307Z,850.85
2022-08-12T02:54:58.472Z,850.73
2022-08-12T02:55:57.453Z,850.74
2022-08-12T02:56:57.424Z,850.69
2022-08-12T02:57:57.418Z,850.74
2022-08-12T02:58:57.410Z,850.66
2022-08-12T02:59:57.398Z,850.63
2022-08-12T03:00:57.427Z,850.67
2022-08-12T03:01:57.390Z,850.56
2022-08-12T03:02:57.371Z,850.62
2022-08-12T03:03:57.383Z,850.56
2022-08-12T03:04:57.331Z,850.65
2022-08-12T03:05:57.351Z,850.67
2022-08-12T03:06:57.311Z,850.70
2022-08-12T03:08:00.064Z,850.70
2022-08-12T03:08:57.291Z,850.67
2022-08-12T03:10:05.305Z,850.69
2022-08-12T03:10:58.311Z,850.81
2022-08-12T03:11:57.318Z,850.73
2022-08-12T03:12:57.252Z,850.60
2022-08-12T03:13:57.243Z,850.71
2022-08-12T03:14:57.263Z,850.62
2022-08-12T03:15:57.225Z,850.59
2022-08-12T03:16:57.204Z,850.58
2022-08-12T03:18:25.511Z,850.50
2022-08-12T03:18:58.183Z,850.70
2022-08-12T03:20:09.179Z,850.67
2022-08-12T03:20:58.166Z,850.62
2022-08-12T03:22:08.847Z,850.61
2022-08-12T03:22:58.163Z,850.64
2022-08-12T03:23:57.147Z,850.59
2022-08-12T03:24:57.115Z,850.49
2022-08-12T03:25:57.140Z,850.51
2022-08-12T03:27:00.193Z,850.55
2022-08-12T03:27:57.792Z,850.62
2022-08-12T03:28:57.075Z,850.59
2022-08-12T03:29:57.076Z,850.53
2022-08-12T03:30:57.055Z,850.51
2022-08-12T03:31:57.036Z,850.46
2022-08-12T03:32:57.018Z,850.49
2022-08-12T03:34:01.643Z,850.52
2022-08-12T03:34:58.004Z,850.62
2022-08-12T03:35:57.035Z,850.49
2022-08-12T03:36:56.979Z,850.44
2022-08-12T03:37:56.968Z,850.51
2022-08-12T03:38:56.988Z,850.46
2022-08-12T03:39:56.983Z,850.41
2022-08-12T03:40:56.928Z,850.46
2022-08-12T03:41:58.118Z,850.43
2022-08-12T03:42:56.920Z,850.37
2022-08-12T03:43:56.907Z,850.44
2022-08-12T03:44:56.891Z,850.43
2022-08-12T03:45:56.906Z,850.30
2022-08-12T03:46:56.859Z,850.34
2022-08-12T03:47:56.868Z,850.24
2022-08-12T03:48:56.848Z,850.26
2022-08-12T03:49:56.847Z,850.35
2022-08-12T03:50:56.839Z,850.35
2022-08-12T03:51:56.831Z,850.32
2022-08-12T03:52:56.791Z,850.32
2022-08-12T03:53:56.823Z,850.25
2022-08-12T03:54:56.800Z,850.18
2022-08-12T03:55:56.803Z,850.23
2022-08-12T03:56:56.755Z,850.26
2022-08-12T03:57:56.753Z,850.23
2022-08-12T03:58:56.732Z,850.09
2022-08-12T03:59:56.745Z,850.03
2022-08-12T04:00:56.816Z,850.18
2022-08-12T04:01:56.720Z,850.17
2022-08-12T04:02:56.672Z,850.17
2022-08-12T04:03:56.686Z,850.17
2022-08-12T04:04:56.705Z,850.17
2022-08-12T04:05:56.984Z,850.13
2022-08-12T04:06:56.663Z,850.20
2022-08-12T04:07:58.366Z,850.19
2022-08-12T04:08:56.645Z,850.24
2022-08-12T04:09:56.604Z,850.22
2022-08-12T04:10:56.624Z,850.18
2022-08-12T04:11:56.620Z,850.19
2022-08-12T04:12:56.591Z,850.21
2022-08-12T04:13:56.571Z,850.21
2022-08-12T04:14:56.564Z,850.18
2022-08-12T04:15:56.545Z,850.09
2022-08-12T04:16:56.544Z,850.18
2022-08-12T04:18:07.493Z,850.21
2022-08-12T04:18:57.512Z,850.18
2022-08-12T04:19:56.499Z,850.11
2022-08-12T04:20:56.485Z,850.11
2022-08-12T04:22:01.861Z,850.15
2022-08-12T04:22:57.524Z,850.21
2022-08-12T04:23:56.444Z,850.19
2022-08-12T04:24:56.444Z,850.18
2022-08-12T04:25:56.436Z,850.13
2022-08-12T04:26:56.468Z,850.10
2022-08-12T04:27:56.408Z,850.08
2022-08-12T04:28:57.399Z,850.11
2022-08-12T04:30:30.426Z,850.13
2022-08-12T04:30:57.462Z,850.12
2022-08-12T04:31:56.356Z,850.08
2022-08-12T04:32:56.362Z,850.00
2022-08-12T04:33:56.348Z,849.98
2022-08-12T04:34:56.404Z,849.94
2022-08-12T04:35:56.307Z,850.03
2022-08-12T04:36:56.329Z,850.06
2022-08-12T04:37:58.219Z,850.08
2022-08-12T04:38:59.536Z,849.99
2022-08-12T04:39:56.311Z,850.07
2022-08-12T04:40:56.269Z,850.07
2022-08-12T04:41:58.696Z,850.00
2022-08-12T04:42:56.248Z,850.07
2022-08-12T04:44:01.789Z,850.04
2022-08-12T04:44:57.221Z,850.07
2022-08-12T04:45:56.200Z,850.08
2022-08-12T04:46:56.210Z,850.11
2022-08-12T04:47:56.189Z,850.07
2022-08-12T04:48:56.169Z,850.08
2022-08-12T04:49:56.149Z,850.08
2022-08-12T04:50:56.180Z,850.12
2022-08-12T04:51:59.476Z,850.17
2022-08-12T04:52:56.140Z,850.24
2022-08-12T04:53:56.108Z,850.21
2022-08-12T04:54:56.109Z,850.20
2022-08-12T04:55:56.081Z,850.23
2022-08-12T04:57:03.959Z,850.27
2022-08-12T04:57:57.080Z,850.19
2022-08-12T04:58:56.062Z,850.19
2022-08-12T04:59:56.040Z,850.21
2022-08-12T05:00:56.041Z,850.19
2022-08-12T05:01:56.080Z,850.24
2022-08-12T05:02:56.085Z,850.23
2022-08-12T05:03:56.001Z,850.26
2022-08-12T05:04:55.996Z,850.28
2022-08-12T05:05:55.980Z,850.24
2022-08-12T05:06:55.974Z,850.27
2022-08-12T05:07:55.952Z,850.31
2022-08-12T05:08:55.951Z,850.19
2022-08-12T05:10:01.834Z,850.20
2022-08-12T05:10:56.926Z,850.16
2022-08-12T05:11:55.907Z,850.29
2022-08-12T05:12:55.959Z,850.21
2022-08-12T05:13:55.925Z,850.24
2022-08-12T05:14:55.886Z,850.18
2022-08-12T05:16:05.655Z,850.23
2022-08-12T05:16:56.855Z,850.16
2022-08-12T05:17:56.055Z,850.25
2022-08-12T05:18:55.846Z,850.34
2022-08-12T05:19:57.462Z,850.33
2022-08-12T05:20:55.812Z,850.32
2022-08-12T05:21:55.796Z,850.24
2022-08-12T05:22:57.569Z,850.32
2022-08-12T05:23:55.779Z,850.22
2022-08-12T05:24:55.765Z,850.24
2022-08-12T05:25:55.757Z,850.25
2022-08-12T05:26:55.737Z,850.37
2022-08-12T05:27:58.775Z,850.28
2022-08-12T05:28:56.367Z,850.32
2022-08-12T05:30:07.972Z,850.29
2022-08-12T05:30:56.697Z,850.31
2022-08-12T05:31:55.665Z,850.30
2022-08-12T05:32:59.062Z,850.31
2022-08-12T05:33:55.697Z,850.30
2022-08-12T05:34:55.757Z,850.39
2022-08-12T05:35:55.630Z,850.42
2022-08-12T05:36:55.643Z,850.41
2022-08-12T05:37:55.616Z,850.39
2022-08-12T05:38:55.641Z,850.43
2022-08-12T05:39:55.676Z,850.40
2022-08-12T05:40:55.590Z,850.33
2022-08-12T05:41:55.569Z,850.38
2022-08-12T05:42:55.570Z,850.47
2022-08-12T05:43:55.565Z,850.41
2022-08-12T05:44:55.556Z,850.48
2022-08-12T05:45:55.521Z,850.53
2022-08-12T05:46:55.517Z,850.62
2022-08-12T05:47:55.509Z,850.61
2022-08-12T05:48:55.510Z,850.61
2022-08-12T05:49:55.481Z,850.65
2022-08-12T05:50:55.482Z,850.69
2022-08-12T05:51:55.462Z,850.73
2022-08-12T05:52:55.449Z,850.72
2022-08-12T05:53:55.450Z,850.68
2022-08-12T05:54:57.747Z,850.77
2022-08-12T05:55:55.410Z,850.87
2022-08-12T05:56:55.413Z,850.91
2022-08-12T05:57:55.403Z,850.94
2022-08-12T05:58:55.414Z,850.95
2022-08-12T05:59:55.361Z,850.97
2022-08-12T06:00:55.379Z,850.93
2022-08-12T06:02:12.449Z,850.99
2022-08-12T06:02:56.427Z,851.09
2022-08-12T06:03:55.327Z,851.09
2022-08-12T06:04:55.338Z,851.24
2022-08-12T06:05:55.899Z,851.18
2022-08-12T06:06:55.294Z,851.14
2022-08-12T06:08:02.342Z,851.06
2022-08-12T06:08:56.274Z,851.20
2022-08-12T06:09:55.269Z,851.30
2022-08-12T06:10:55.253Z,851.36
2022-08-12T06:12:04.767Z,851.25
2022-08-12T06:12:56.234Z,851.37
2022-08-12T06:13:55.213Z,851.41
2022-08-12T06:14:55.227Z,851.32
2022-08-12T06:15:55.214Z,851.43
2022-08-12T06:16:55.186Z,851.38
2022-08-12T06:17:55.166Z,851.66
2022-08-12T06:18:55.174Z,851.64
2022-08-12T06:20:25.859Z,851.71
2022-08-12T06:20:56.154Z,851.81
2022-08-12T06:21:55.119Z,851.80
2022-08-12T06:22:55.282Z,851.83
2022-08-12T06:23:55.106Z,851.84
2022-08-12T06:24:55.106Z,851.94
2022-08-12T06:25:55.098Z,851.92
2022-08-12T06:26:55.099Z,851.97
2022-08-12T06:28:06.099Z,852.01
2022-08-12T06:28:56.047Z,852.10
2022-08-12T06:30:09.014Z,852.07
2022-08-12T06:31:24.814Z,852.14
2022-08-12T06:31:56.027Z,852.19
2022-08-12T06:33:04.131Z,852.35
2022-08-12T06:34:00.278Z,852.43
2022-08-12T06:35:27.017Z,852.43
2022-08-12T06:35:58.674Z,852.45
2022-08-12T06:36:54.959Z,852.68
2022-08-12T06:37:56.406Z,852.75
2022-08-12T06:38:54.939Z,852.86
2022-08-12T06:39:54.982Z,852.99
2022-08-12T06:40:54.941Z,853.01
2022-08-12T06:42:04.886Z,853.17
2022-08-12T06:42:55.897Z,853.17
2022-08-12T06:44:06.897Z,853.24
2022-08-12T06:44:55.883Z,853.28
2022-08-12T06:45:54.859Z,853.38
2022-08-12T06:46:54.871Z,853.46
2022-08-12T06:47:54.848Z,853.54
2022-08-12T06:48:55.579Z,853.64
2022-08-12T06:49:54.813Z,853.70
2022-08-12T06:50:54.820Z,853.78
2022-08-12T06:51:56.534Z,853.72
2022-08-12T06:52:54.804Z,853.96
2022-08-12T06:53:54.793Z,853.99
2022-08-12T06:54:54.780Z,854.11
2022-08-12T06:55:58.370Z,854.03
2022-08-12T06:58:05.776Z,854.20
2022-08-12T06:58:06.072Z,854.01
2022-08-12T06:58:55.733Z,854.15
2022-08-12T06:59:54.706Z,854.31
2022-08-12T07:00:54.776Z,854.39
2022-08-12T07:01:54.724Z,854.47
2022-08-12T07:02:54.695Z,854.52
2022-08-12T07:03:54.663Z,854.75
2022-08-12T07:04:54.652Z,854.81
2022-08-12T07:05:54.644Z,854.97
2022-08-12T07:06:54.664Z,855.03
2022-08-12T07:07:54.617Z,855.06
2022-08-12T07:08:54.612Z,855.13
2022-08-12T07:10:06.653Z,855.17
2022-08-12T07:10:55.596Z,855.26
2022-08-12T07:11:54.564Z,855.31
2022-08-12T07:12:54.596Z,855.38
2022-08-12T07:14:11.852Z,855.36
2022-08-12T07:14:55.544Z,855.42
2022-08-12T07:15:54.529Z,855.40
2022-08-12T07:16:54.536Z,855.38
2022-08-12T07:17:54.508Z,855.48
2022-08-12T07:18:54.516Z,855.61
2022-08-12T07:19:55.495Z,855.68
2022-08-12T07:20:54.534Z,855.77
2022-08-12T07:21:59.938Z,855.84
2022-08-12T07:22:55.456Z,855.92
2022-08-12T07:23:54.437Z,855.97
2022-08-12T07:24:54.456Z,856.13
2022-08-12T07:25:58.318Z,856.19
2022-08-12T07:26:54.420Z,856.19
2022-08-12T07:27:54.407Z,856.35
2022-08-12T07:28:54.388Z,856.46
2022-08-12T07:29:58.035Z,856.54
2022-08-12T07:30:55.367Z,856.61
2022-08-12T07:31:54.360Z,856.58
2022-08-12T07:32:57.394Z,856.73
2022-08-12T07:33:55.329Z,856.81
2022-08-12T07:34:54.332Z,856.84
2022-08-12T07:35:54.308Z,856.85
2022-08-12T07:36:54.300Z,856.87
2022-08-12T07:37:54.301Z,856.87
2022-08-12T07:38:54.280Z,856.94
2022-08-12T07:39:59.920Z,857.06
2022-08-12T07:40:55.259Z,857.14
2022-08-12T07:41:54.241Z,857.26
2022-08-12T07:42:54.327Z,857.37
2022-08-12T07:43:54.225Z,857.45
2022-08-12T07:44:54.225Z,857.54
2022-08-12T07:45:54.192Z,857.65
2022-08-12T07:46:54.188Z,857.61
2022-08-12T07:47:54.185Z,857.54
2022-08-12T07:48:54.433Z,857.56
2022-08-12T07:50:03.484Z,857.72
2022-08-12T07:50:55.144Z,857.78
2022-08-12T07:51:54.144Z,857.88
2022-08-12T07:52:54.383Z,857.83
2022-08-12T07:54:00.241Z,857.81
2022-08-12T07:54:55.116Z,857.95
2022-08-12T07:55:54.087Z,857.95
2022-08-12T07:56:54.084Z,858.06
2022-08-12T07:57:54.087Z,858.14
2022-08-12T07:58:54.063Z,858.25
2022-08-12T07:59:55.906Z,858.32
2022-08-12T08:00:54.085Z,858.52
2022-08-12T08:01:54.135Z,858.55
2022-08-12T08:02:54.029Z,858.47
2022-08-12T08:03:54.016Z,858.66
2022-08-12T08:04:54.007Z,858.79
2022-08-12T08:05:53.984Z,858.83
2022-08-12T08:06:53.976Z,858.89
2022-08-12T08:07:53.968Z,858.96
2022-08-12T08:08:53.988Z,858.88
2022-08-12T08:09:58.403Z,859.04
2022-08-12T08:10:54.928Z,859.05
2022-08-12T08:11:53.908Z,859.19
2022-08-12T08:12:53.938Z,859.41
2022-08-12T08:13:53.881Z,859.43
2022-08-12T08:14:53.911Z,859.55
2022-08-12T08:16:09.180Z,859.63
2022-08-12T08:16:54.861Z,859.57
2022-08-12T08:17:53.868Z,859.70
2022-08-12T08:18:53.861Z,859.89
2022-08-12T08:20:02.521Z,859.91
2022-08-12T08:20:54.820Z,860.07
2022-08-12T08:21:53.801Z,860.14
2022-08-12T08:22:53.874Z,860.35
2022-08-12T08:23:55.810Z,860.46
2022-08-12T08:24:53.780Z,860.54
2022-08-12T08:25:53.761Z,860.73
2022-08-12T08:26:53.745Z,860.80
2022-08-12T08:27:53.745Z,860.95
2022-08-12T08:28:53.725Z,861.06
2022-08-12T08:29:53.732Z,861.22
2022-08-12T08:30:53.703Z,861.37
2022-08-12T08:31:53.697Z,861.48
2022-08-12T08:32:53.685Z,861.55
2022-08-12T08:34:04.884Z,861.76
2022-08-12T08:34:54.941Z,861.79
2022-08-12T08:35:54.399Z,861.95
2022-08-12T08:36:53.656Z,862.05
2022-08-12T08:37:53.736Z,862.17
2022-08-12T08:38:58.664Z,862.32
2022-08-12T08:39:54.670Z,862.41
2022-08-12T08:40:53.597Z,862.57
2022-08-12T08:42:19.187Z,862.55
2022-08-12T08:42:54.565Z,862.78
2022-08-12T08:43:53.572Z,862.85
2022-08-12T08:44:58.338Z,862.86
2022-08-12T08:45:54.576Z,862.89
2022-08-12T08:46:53.536Z,862.93
2022-08-12T08:47:56.184Z,863.00
2022-08-12T08:48:57.614Z,863.18
2022-08-12T08:49:54.502Z,863.27
2022-08-12T08:50:56.656Z,863.41
2022-08-12T08:51:54.498Z,863.61
2022-08-12T08:52:53.521Z,863.75
2022-08-12T08:53:53.460Z,863.82
2022-08-12T08:54:53.453Z,863.90
2022-08-12T08:56:04.582Z,864.04
2022-08-12T08:56:54.468Z,863.95
2022-08-12T08:57:53.428Z,863.94
2022-08-12T08:58:53.401Z,864.01
2022-08-12T08:59:53.392Z,863.95
2022-08-12T09:00:53.379Z,864.00
2022-08-12T09:01:53.397Z,864.04
2022-08-12T09:02:59.106Z,864.07
2022-08-12T09:05:12.288Z,864.45
2022-08-12T09:06:02.148Z,864.58
2022-08-12T09:06:55.969Z,864.56
2022-08-12T09:08:09.196Z,864.69
2022-08-12T09:08:54.293Z,864.76
2022-08-12T09:10:02.061Z,864.61
2022-08-12T09:10:59.527Z,864.80
2022-08-12T09:12:10.604Z,864.87
2022-08-12T09:12:55.769Z,865.05
2022-08-12T09:14:12.623Z,865.02
2022-08-12T09:14:54.239Z,865.18
2022-08-12T09:15:56.058Z,865.19
2022-08-12T09:16:53.225Z,865.05
2022-08-12T09:17:53.369Z,864.99
2022-08-12T09:18:53.320Z,864.96
2022-08-12T09:19:58.232Z,865.05
2022-08-12T09:20:54.165Z,865.02
2022-08-12T09:21:55.094Z,865.09
2022-08-12T09:22:53.660Z,865.06
2022-08-12T09:24:00.274Z,864.98
2022-08-12T09:24:54.138Z,865.01
2022-08-12T09:25:53.130Z,865.04
2022-08-12T09:26:53.118Z,865.11
2022-08-12T09:27:57.789Z,865.15
2022-08-12T09:28:54.178Z,865.15
2022-08-12T09:30:11.153Z,865.10
2022-08-12T09:30:54.062Z,865.27
2022-08-12T09:32:07.651Z,865.29
2022-08-12T09:33:03.971Z,865.33
2022-08-12T09:34:29.836Z,865.42
2022-08-12T09:34:54.031Z,865.54
2022-08-12T09:36:05.084Z,865.58
2022-08-12T09:37:00.256Z,865.70
2022-08-12T09:37:58.260Z,865.78
2022-08-12T09:38:58.761Z,865.88
2022-08-12T09:40:05.372Z,865.93
2022-08-12T09:40:57.135Z,865.94
2022-08-12T09:42:34.162Z,865.81
2022-08-12T09:43:15.498Z,865.85
2022-08-12T09:44:00.761Z,865.89
2022-08-12T09:45:18.904Z,865.82
2022-08-12T09:46:19.739Z,866.09
2022-08-12T09:46:53.931Z,866.02
2022-08-12T09:47:59.459Z,865.82
2022-08-12T09:48:56.625Z,865.99
2022-08-12T09:49:57.906Z,866.19
2022-08-12T09:50:55.621Z,866.47
2022-08-12T09:51:52.840Z,866.57
2022-08-12T09:52:56.513Z,866.49
2022-08-12T09:54:05.993Z,866.53
2022-08-12T09:54:59.838Z,866.60
2022-08-12T09:56:06.508Z,866.49
2022-08-12T09:57:01.131Z,866.39
2022-08-12T09:58:45.291Z,866.24
2022-08-12T09:58:57.945Z,866.24
2022-08-12T10:00:15.434Z,866.31
2022-08-12T10:00:53.969Z,866.43
2022-08-12T10:02:44.773Z,866.52
2022-08-12T10:02:54.206Z,866.60
2022-08-12T10:04:03.521Z,866.47
2022-08-12T10:04:53.731Z,866.58
2022-08-12T10:06:26.648Z,866.78
2022-08-12T10:06:55.631Z,866.66
2022-08-12T10:07:52.662Z,866.85
2022-08-12T10:08:53.589Z,866.92
2022-08-12T10:09:58.228Z,867.06
2022-08-12T10:10:53.663Z,867.39
2022-08-12T10:12:11.199Z,867.50
2022-08-12T10:13:09.901Z,867.41
2022-08-12T10:13:53.622Z,867.56
2022-08-12T10:14:54.989Z,867.73
2022-08-12T10:16:02.028Z,867.41
2022-08-12T10:16:53.568Z,867.37
2022-08-12T10:18:06.609Z,867.34
2022-08-12T10:18:53.639Z,867.57
2022-08-12T10:19:53.217Z,867.53
2022-08-12T10:20:52.567Z,867.55
2022-08-12T10:21:56.683Z,867.56
2022-08-12T10:22:53.063Z,867.48
2022-08-12T10:23:56.754Z,867.52
2022-08-12T10:24:52.501Z,867.42
2022-08-12T10:26:18.178Z,867.60
2022-08-12T10:26:53.466Z,867.63
2022-08-12T10:28:05.790Z,867.63
2022-08-12T10:29:01.935Z,867.61
2022-08-12T10:30:03.069Z,867.48
2022-08-12T10:30:59.299Z,867.04
2022-08-12T10:32:19.799Z,866.84
2022-08-12T10:33:02.439Z,866.85
2022-08-12T10:34:06.168Z,866.97
2022-08-12T10:34:57.169Z,867.04
2022-08-12T10:35:52.570Z,867.04
2022-08-12T10:36:52.362Z,867.31
2022-08-12T10:38:33.655Z,867.38
2022-08-12T10:38:53.331Z,867.31
2022-08-12T10:40:02.885Z,867.28
2022-08-12T10:40:53.365Z,867.04
2022-08-12T10:41:57.775Z,866.76
2022-08-12T10:42:53.311Z,866.73
2022-08-12T10:43:56.316Z,866.91
2022-08-12T10:44:52.280Z,867.01
2022-08-12T10:45:52.274Z,867.23
2022-08-12T10:46:52.255Z,867.28
2022-08-12T10:48:19.386Z,867.47
2022-08-12T10:49:05.596Z,867.69
2022-08-12T10:50:03.731Z,867.83
2022-08-12T10:50:58.558Z,868.01
2022-08-12T10:52:32.714Z,867.86
2022-08-12T10:52:53.199Z,868.02
2022-08-12T10:53:52.744Z,868.14
2022-08-12T10:54:52.166Z,868.32
2022-08-12T10:55:56.209Z,868.11
2022-08-12T10:56:52.179Z,868.11
2022-08-12T10:58:14.200Z,867.96
2022-08-12T10:58:53.131Z,868.07
2022-08-12T11:00:30.826Z,868.07
2022-08-12T11:01:25.599Z,868.13
2022-08-12T11:04:20.635Z,868.13
2022-08-12T11:04:27.481Z,868.10
2022-08-12T11:04:31.669Z,868.22
2022-08-12T11:04:53.608Z,868.29
2022-08-12T11:07:05.007Z,868.64
2022-08-12T11:07:06.726Z,868.46
2022-08-12T11:08:34.897Z,868.49
2022-08-12T11:08:53.061Z,868.43
2022-08-12T11:10:00.107Z,868.66
2022-08-12T11:10:52.999Z,868.49
2022-08-12T11:12:36.066Z,868.39
2022-08-12T11:12:58.538Z,868.40
2022-08-12T11:13:52.985Z,868.43
2022-08-12T11:14:52.975Z,868.66
2022-08-12T11:16:18.918Z,868.86
2022-08-12T11:17:33.615Z,868.82
2022-08-12T11:17:55.713Z,868.91
2022-08-12T11:18:55.144Z,868.63
2022-08-12T11:19:52.915Z,868.57
2022-08-12T11:20:52.321Z,868.47
2022-08-12T11:21:58.256Z,868.39
2022-08-12T11:22:58.543Z,868.29
2022-08-12T11:23:53.526Z,868.53
2022-08-12T11:24:51.971Z,868.62
2022-08-12T11:25:57.543Z,868.69
2022-08-12T11:26:52.902Z,868.78
2022-08-12T11:27:51.847Z,868.95
2022-08-12T11:29:05.591Z,869.06
2022-08-12T11:30:02.119Z,869.16
2022-08-12T11:30:53.736Z,868.97
2022-08-12T11:31:56.074Z,868.90
2022-08-12T11:32:52.778Z,868.81
2022-08-12T11:34:06.373Z,868.81
2022-08-12T11:34:55.094Z,868.47
2022-08-12T11:35:56.290Z,868.31
2022-08-12T11:36:53.484Z,868.10
2022-08-12T11:37:57.947Z,868.13
2022-08-12T11:38:52.671Z,868.14
2022-08-12T11:40:52.654Z,867.93
2022-08-12T11:41:51.654Z,867.76
2022-08-12T11:42:52.047Z,867.98
2022-08-12T11:43:58.580Z,868.16
2022-08-12T11:44:52.623Z,868.24
2022-08-12T11:45:53.307Z,868.08
2022-08-12T11:46:53.416Z,867.99
2022-08-12T11:47:51.613Z,867.93
2022-08-12T11:48:52.634Z,867.68
2022-08-12T11:49:52.051Z,867.62
2022-08-12T11:50:51.556Z,867.80
2022-08-12T11:51:57.897Z,867.93
2022-08-12T11:52:55.661Z,867.88
2022-08-12T11:53:57.283Z,868.05
2022-08-12T11:54:54.408Z,868.34
2022-08-12T11:55:51.511Z,868.53
2022-08-12T11:56:52.375Z,868.74
2022-08-12T11:58:19.762Z,869.02
2022-08-12T12:01:58.129Z,869.06
2022-08-12T12:01:58.291Z,869.18
2022-08-12T12:02:52.472Z,868.66
2022-08-12T12:03:51.427Z,868.59
2022-08-12T12:04:52.534Z,868.60
2022-08-12T12:05:51.414Z,868.84
2022-08-12T12:06:53.206Z,869.00
2022-08-12T12:08:38.016Z,869.21
2022-08-12T12:08:53.950Z,869.06
2022-08-12T12:09:52.393Z,869.05
2022-08-12T12:10:51.362Z,868.99
2022-08-12T12:11:51.356Z,868.86
2022-08-12T12:12:51.508Z,869.03
2022-08-12T12:14:07.758Z,869.02
2022-08-12T12:14:54.958Z,868.88
2022-08-12T12:15:51.347Z,868.91
2022-08-12T12:16:51.317Z,868.90
2022-08-12T12:17:51.322Z,869.03
2022-08-12T12:18:51.277Z,869.14
2022-08-12T12:19:51.284Z,868.96
2022-08-12T12:20:51.251Z,869.13
2022-08-12T12:21:51.252Z,869.06
2022-08-12T12:22:51.232Z,869.20
2022-08-12T12:23:51.256Z,869.22
2022-08-12T12:24:51.219Z,869.41
2022-08-12T12:26:06.917Z,869.49
2022-08-12T12:27:00.195Z,869.63
2022-08-12T12:28:05.729Z,869.69
2022-08-12T12:28:54.441Z,869.92
2022-08-12T12:30:19.642Z,869.84
2022-08-12T12:30:54.882Z,869.94
2022-08-12T12:32:06.845Z,870.08
2022-08-12T12:32:53.439Z,870.18